• Join FlightAware (Why Join?)
  • Login
  • US Flag 
08:18PM EST


 

Airport Tracker/Info


-or-


 

Live Flight TrackerFlight Track Log ✈ GJS3707 ✈ 17-Jun-2013 ✈ KBOI - KORD

Flight Track Log - Related Links

Times and Time Zones

All times are in EDT time to prevent confusion due to time zone crossing. See the GJS3707 flight status page for this flight to view local times or setup timezone preferences in your user account.

Time Position Orientation Groundspeed Altitude Reporting Facility
EDT Latitude Longitude Course Direction KTS MPH feet Rate Location/Type
03:13PM 43.6178 -116.3658 302° West 227 261 6,600  Level Salt Lake Center
03:14PM 43.6706 -116.3322 25° Northeast 259 298 8,300 1,887 Climbing Salt Lake Center
03:15PM 43.6596 -115.5462 78° East  Level FlightAware Approximate
03:15PM 43.6839 -116.2147 81° East 281 323 10,500  Level Salt Lake Center
03:16PM 43.6781 -115.3742 83° East  Level FlightAware Approximate
03:16PM 43.6975 -116.1075 80° East 292 336 12,500  Level Salt Lake Center
03:17PM 43.7031 -115.2058 81° East  Level FlightAware Approximate
03:17PM 43.7125 -115.9767 81° East 305 351 14,900  Level Salt Lake Center
03:18PM 43.7258 -115.8572 81° East 325 374 16,600 1,824 Climbing Salt Lake Center
03:19PM 43.7431 -115.7111 81° East 344 396 18,700 1,790 Climbing Salt Lake Center
03:20PM 43.7578 -115.5842 81° East 350 403 20,300 1,597 Climbing Salt Lake Center
03:21PM 43.7750 -115.4294 81° East 365 420 22,000 1,403 Climbing Salt Lake Center
03:22PM 43.7911 -115.2914 81° East 378 435 23,200 1,452 Climbing Salt Lake Center
03:23PM 43.8097 -115.1272 81° East 387 445 25,000 1,306 Climbing Salt Lake Center
03:25PM 43.8258 -114.9806 81° East 402 463 25,900 871 Climbing Salt Lake Center
03:26PM 43.8444 -114.8017 82° East 421 484 26,800 774 Climbing Salt Lake Center
03:27PM 43.8617 -114.6425 81° East 438 504 27,500 774 Climbing Salt Lake Center
03:28PM 43.8767 -114.4506 84° East 450 518 28,400 823 Climbing Salt Lake Center
03:29PM 43.8856 -114.2825 86° East 455 524 29,200 823 Climbing Salt Lake Center
03:30PM 43.8967 -114.0825 86° East 467 537 30,100 823 Climbing Salt Lake Center
03:31PM 43.9056 -113.9106 86° East 467 537 30,900 435 Climbing Salt Lake Center
03:32PM 43.9164 -113.7106 86° East 478 550 31,000 339 Climbing Salt Lake Center
03:33PM 43.9247 -113.5281 86° East 493 567 31,600 484 Climbing Salt Lake Center
03:34PM 43.9322 -113.3169 87° East 491 565 32,000 194 Climbing Salt Lake Center
03:35PM 43.9414 -113.1353 86° East 495 570 32,000 97 Level Salt Lake Center
03:36PM 43.9506 -112.9228 86° East 496 571 32,200 435 Climbing Salt Lake Center
03:37PM 43.9583 -112.7414 87° East 493 567 32,900 774 Climbing Salt Lake Center
03:38PM 43.9669 -112.5314 87° East 491 565 33,800 774 Climbing Salt Lake Center
03:39PM 43.9742 -112.3528 87° East 487 560 34,500 823 Climbing Salt Lake Center
03:40PM 43.9808 -112.1467 87° East 481 554 35,500 823 Climbing Salt Lake Center
03:41PM 43.9858 -111.9719 88° East 478 550 36,200 581 Climbing Salt Lake Center
03:42PM 43.9936 -111.8025 86° East 468 539 36,700 387 Climbing Salt Lake Center
03:43PM 43.9986 -111.5994 88° East 473 544 37,000 145 Climbing Salt Lake Center
03:44PM 44.0028 -111.4256 88° East 475 547 37,000  Level Salt Lake Center
03:45PM 44.0100 -111.2206 87° East 479 551 37,000  Level Salt Lake Center
03:46PM 44.0150 -111.0461 88° East 477 549 37,000  Level Salt Lake Center
03:47PM 44.0203 -110.8408 88° East 478 550 37,000  Level Salt Lake Center
03:48PM 44.0244 -110.6656 88° East 477 549 37,000  Level Salt Lake Center
03:49PM 44.0281 -110.4631 89° East 473 544 37,000  Level Salt Lake Center
03:50PM 44.0331 -110.2867 88° East 476 548 37,000  Level Salt Lake Center
03:51PM 44.0361 -110.0836 89° East 473 544 37,000  Level Salt Lake Center
03:52PM 44.0381 -109.9094 89° East 474 545 37,000  Level Salt Lake Center
03:53PM 44.0425 -109.7047 88° East 475 547 37,000  Level Salt Lake Center
03:54PM 44.0447 -109.5294 89° East 475 547 37,000  Level Salt Lake Center
03:55PM 44.0458 -109.3469 89° East 474 545 37,000  Level Salt Lake Center
03:57PM 44.0475 -109.1417 89° East 477 549 37,000  Level Salt Lake Center
03:58PM 44.0497 -108.9653 89° East 478 550 37,000  Level Salt Lake Center
03:59PM 44.0508 -108.7597 89° East 479 551 37,000  Level Salt Lake Center
04:00PM 44.0517 -108.5833 90° East 478 550 37,000  Level Salt Lake Center
04:01PM 44.0336 -108.3772 97° East 484 557 37,000  Level Salt Lake Center
04:02PM 44.0175 -108.2022 97° East 482 555 37,000  Level Salt Lake Center
04:03PM 43.9986 -107.9975 97° East 480 552 37,000  Level Salt Lake Center
04:04PM 43.9736 -107.8206 101° East 487 560 37,000  Level Salt Lake Center
04:05PM 43.9458 -107.6156 101° East 487 560 37,000  Level Salt Lake Center
04:06PM 43.9203 -107.4422 102° East 484 557 37,000  Level Salt Lake Center
04:07PM 43.8869 -107.2675 105° East 490 564 37,000  Level Salt Lake Center
04:08PM 43.8472 -107.0647 105° East 490 564 37,000  Level Salt Lake Center
04:09PM 43.8094 -106.8725 105° East 489 563 37,000  Level Salt Lake Center
04:10PM 43.7836 -106.7233 103° East 486 559 37,000  Level Denver Center
04:11PM 43.7675 -106.5150 96° East 486 559 37,000  Level Denver Center
04:12PM 43.7694 -106.3317 89° East 494 568 37,000  Level Denver Center
04:13PM 43.7722 -106.1192 89° East 495 570 37,000  Level Denver Center
04:14PM 43.7719 -105.9372 90° East 494 568 37,000  Level Denver Center
04:15PM 43.7733 -105.7242 89° East 495 570 37,000  Level Denver Center
04:16PM 43.7731 -105.5419 90° East 494 568 37,000  Level Denver Center
04:17PM 43.7731 -105.3611 90° East 491 565 37,000 145 Level Denver Center
04:18PM 43.7719 -105.1461 90° East 496 571 37,300 387 Climbing Denver Center
04:19PM 43.7708 -104.9631 90° East 496 571 37,800 484 Climbing Denver Center
04:20PM 43.7692 -104.7517 91° East 492 566 38,300 581 Climbing Denver Center
04:21PM 43.7669 -104.5747 91° East 484 557 39,000 339 Climbing Denver Center
04:22PM 43.7619 -104.3708 92° East 478 550 39,000  Level Denver Center
04:23PM 43.7339 -104.2294 105° East 479 551 39,000  Level Denver Center
04:24PM 43.6853 -104.0394 109° East 470 541 39,000  Level Denver Center
04:25PM 43.6331 -103.8503 111° Southeast 470 541 39,000  Level Denver Center
04:26PM 43.5869 -103.6889 111° Southeast 472 543 39,000  Level Denver Center
04:27PM 43.5331 -103.5014 112° Southeast 470 541 39,000 48 Level Denver Center
04:28PM 43.4828 -103.3389 113° Southeast 476 548 39,100  Climbing Denver Center
04:29PM 43.4253 -103.1497 113° Southeast 479 551 39,000 -48 Descending Denver Center
04:30PM 43.3806 -102.9858 111° Southeast 478 550 39,000  Level Denver Center
04:31PM 43.3536 -102.7867 100° East 477 549 39,000  Level Denver Center
04:33PM 43.3581 -102.6114 88° East 477 549 39,000  Level Denver Center
04:34PM 43.3617 -102.3756 89° East 483 556 39,000  Level Denver Center
04:35PM 43.3642 -102.1992 89° East 483 556 39,000  Level Denver Center
04:36PM 43.3650 -101.9953 90° East 484 557 39,000  Level Denver Center
04:37PM 43.3669 -101.7725 89° East 487 560 39,000  Level Denver Center
04:38PM 43.3669 -101.5869 90° East 487 560 39,000  Level Denver Center
04:39PM 43.3669 -101.3992 90° East 492 566 39,000  Level Denver Center
04:40PM 43.3672 -101.1744 90° East 491 565 39,000  Level Denver Center
04:41PM 43.3681 -100.9867 90° East 494 568 39,000  Level Denver Center
04:42PM 43.3672 -100.7969 90° East 496 571 39,000  Level Denver Center
04:43PM 43.3658 -100.6075 91° East 498 573 39,000  Level Denver Center
04:44PM 43.3644 -100.4181 91° East 497 572 39,000  Level Denver Center
04:45PM 43.3639 -100.3436 91° East 499 574 39,000  Level Minneapolis Center
04:45PM 43.3631 -100.2311 91° East 495 570 39,000  Level Denver Center
04:46PM 43.3614 -100.0044 91° East 495 570 39,000  Level Denver Center
04:47PM 43.3608 -99.9322 91° East 493 567 39,000  Level Minneapolis Center
04:48PM 43.3578 -99.7442 91° East 493 567 39,000  Level Minneapolis Center
04:49PM 43.3550 -99.5572 91° East 492 566 39,000  Level Minneapolis Center
04:50PM 43.3522 -99.3719 91° East 489 563 39,000  Level Minneapolis Center
04:51PM 43.3497 -99.1856 91° East 489 563 39,000  Level Minneapolis Center
04:52PM 43.3456 -98.9714 91° East 493 567 39,000  Level Minneapolis Center
04:53PM 43.3419 -98.7861 91° East 491 565 39,000  Level Minneapolis Center
04:54PM 43.3381 -98.6000 92° East 489 563 39,000  Level Minneapolis Center
04:55PM 43.3333 -98.4128 92° East 492 566 39,000  Level Minneapolis Center
04:56PM 43.3294 -98.2267 92° East 491 565 39,000  Level Minneapolis Center
04:57PM 43.3231 -98.0044 92° East 489 563 39,000  Level Minneapolis Center
04:58PM 43.3178 -97.8194 92° East 489 563 39,000  Level Minneapolis Center
04:59PM 43.3111 -97.6356 93° East 486 559 39,000  Level Minneapolis Center
05:00PM 43.3064 -97.4522 92° East 485 558 39,000  Level Minneapolis Center
05:01PM 43.2994 -97.2667 93° East 486 559 39,000  Level Minneapolis Center
05:02PM 43.2917 -97.0464 93° East 487 560 39,000  Level Minneapolis Center
05:03PM 43.2842 -96.8622 93° East 486 559 39,000  Level Minneapolis Center
05:04PM 43.2781 -96.6831 93° East 480 552 39,000  Level Minneapolis Center
05:05PM 43.2708 -96.5011 93° East 480 552 39,000  Level Minneapolis Center
05:06PM 43.2622 -96.3208 94° East 479 551 39,000  Level Minneapolis Center
05:07PM 43.2528 -96.1028 93° East 482 555 39,000  Level Minneapolis Center
05:09PM 43.2447 -95.9217 93° East 481 554 39,000  Level Minneapolis Center
05:10PM 43.2364 -95.7394 94° East 482 555 39,000  Level Minneapolis Center
05:11PM 43.2269 -95.5589 94° East 481 554 39,000  Level Minneapolis Center
05:12PM 43.2186 -95.3758 94° East 483 556 39,000  Level Minneapolis Center
05:13PM 43.2072 -95.1553 94° East 487 560 39,000  Level Minneapolis Center
05:14PM 43.1969 -94.9714 94° East 487 560 39,000  Level Minneapolis Center
05:15PM 43.1867 -94.7861 94° East 490 564 39,000  Level Minneapolis Center
05:16PM 43.1761 -94.6003 94° East 490 564 39,000  Level Minneapolis Center
05:17PM 43.1639 -94.4153 95° East 491 565 39,000  Level Minneapolis Center
05:18PM 43.1528 -94.2211 94° East 495 570 39,000  Level Minneapolis Center
05:19PM 43.1414 -94.0353 95° East 495 570 39,000  Level Minneapolis Center
05:20PM 43.1264 -93.8106 95° East 499 574 39,000  Level Minneapolis Center
05:21PM 43.1133 -93.6219 95° East 501 577 39,000  Level Minneapolis Center
05:22PM 43.1022 -93.4344 95° East 500 575 39,000  Level Minneapolis Center
05:23PM 43.0883 -93.2442 96° East 505 581 39,000  Level Minneapolis Center
05:24PM 43.0744 -93.0197 95° East 500 575 39,000  Level Minneapolis Center
05:25PM 43.1392 -92.8131 67° East 499 574 39,000  Level Minneapolis Center
05:26PM 43.2147 -92.6553 57° Northeast 496 571 39,000  Level Minneapolis Center
05:27PM 43.2447 -92.4700 77° East 506 582 39,000 -242 Level Minneapolis Center
05:28PM 43.2103 -92.2911 105° East 492 566 38,500 -1,258 Descending Minneapolis Center
05:29PM 43.1533 -92.1167 114° Southeast 502 578 36,400 -2,081 Descending Minneapolis Center
05:30PM 43.0961 -91.9431 114° Southeast 504 580 34,200 -2,257 Descending Minneapolis Center
05:31PM 43.0511 -91.8081 114° Southeast 494 568 32,600 -1,604 Descending Chicago Center
05:32PM 42.9969 -91.6403 114° Southeast 481 554 31,500 -1,059 Descending Chicago Center
05:32PM 42.9756 -91.5703 113° Southeast 486 559 31,100 -357 Descending Minneapolis Center
05:34PM 42.9525 -91.3756 99° East 510 587 31,000 -59 Descending Minneapolis Center
05:34PM 42.9342 -91.2622 102° East 514 592 31,000  Level Chicago Center
05:35PM 42.9019 -91.0689 103° East 523 602 31,000  Level Chicago Center
05:36PM 42.8703 -90.8747 102° East 527 606 31,000  Level Chicago Center
05:37PM 42.8300 -90.6456 103° East 524 603 31,000  Level Chicago Center
05:38PM 42.7964 -90.4550 103° East 522 601 31,000 -97 Level Chicago Center
05:39PM 42.7639 -90.2664 103° East 519 597 30,800 -1,113 Descending Chicago Center
05:40PM 42.7306 -90.0767 103° East 520 598 28,700 -2,323 Descending Chicago Center
05:41PM 42.6922 -89.8700 104° East 489 563 26,000 -2,613 Descending Chicago Center
05:42PM 42.6656 -89.7053 102° East 461 531 23,300 -2,565 Descending Chicago Center
05:43PM 42.6369 -89.5425 103° East 450 518 20,700 -2,468 Descending Chicago Center
05:45PM 42.6086 -89.3847 104° East 435 501 18,200 -2,565 Descending Chicago Center
05:46PM 42.5761 -89.2106 104° East 415 478 15,400 -2,177 Descending Chicago Center
05:47PM 42.5492 -89.0778 105° East 375 432 13,700 -1,694 Descending Chicago Center
05:48PM 42.5128 -88.9564 112° Southeast 347 399 11,900 -1,584 Descending Chicago Center
05:49PM 42.4781 -88.8433 113° Southeast 332 382 10,400 -864 Descending Chicago Center
05:50PM 42.4461 -88.7367 112° Southeast 314 361 10,100 -194 Descending Chicago Center
05:51PM 42.4058 -88.6072 113° Southeast 320 368 10,000 -48 Descending Chicago Center
05:52PM 42.3731 -88.4953 112° Southeast 318 366 10,000 -774 Level Chicago Center
05:53PM 42.3408 -88.3900 112° Southeast 306 352 8,400 -1,500 Descending Chicago Center
05:54PM 42.2869 -88.2994 129° Southeast 299 344 6,900 -677 Descending Chicago Center
05:55PM 42.2356 -88.2144 129° Southeast 295 339 7,000 48 Climbing Chicago Center
05:56PM 42.1817 -88.1311 131° Southeast 296 341 7,000  Level Chicago Center
05:57PM 42.1167 -88.0500 137° Southeast 296 341 7,000  Level Chicago TRACON
05:58PM 42.1000 -87.9667 105° East 296 341 7,000 -45 Level Chicago TRACON
05:59PM 42.0911 -87.8344 95° East 286 329 6,900 -985 Descending Chicago Center
06:00PM 42.0917 -87.7481 89° East 245 282 4,800 -1,872 Descending Chicago Center
06:01PM 42.0478 -87.7036 143° Southeast 228 262 3,000 -1,152 Descending Chicago Center
06:02PM 42.0114 -87.7567 227° Southwest 206 237 2,400 -629 Descending Chicago Center
06:03PM 42.0019 -87.8300 260° West 179 206 1,700 -581 Descending Chicago Center
06:04PM 42.0036 -87.8681 273° West 160 184 1,200 -484 Descending Chicago Center